Latest Weather Observations for Casterton

IDV60801

Issued at 10:33 am EST Tuesday 23 May 2017 (issued every 30 minutes, with the page automatically refreshed every 10 minutes)

About weather observations | Map of weather stations | Latest weather observations for VIC | Other Formats
Station Details ID: 090182 Name: CASTERTON Lat: -37.58 Lon: 141.33 Height: 130.6 m
Data from the previous 72 hours. | See also: Recent months at Casterton
Date/Time
EST
Temp
°C
App
Temp
°C
Dew
Point
°C
Rel
Hum
%
Delta-T
°C
Wind Press
QNH
hPa
Press
MSL
hPa
Rain since
9am
mm
Dir  Spd
km/h
Gust
km/h
Spd
kts
Gust
kts
23/10:30am 13.4 11.0 12.6 95 0.4 NNW 17 22 9 12 1015.7 1015.7 0.0
23/10:00am 13.7 12.2 13.2 97 0.3 N 13 19 7 10 1015.8 1015.9 0.0
23/09:30am 12.5 10.8 12.3 99 0.1 NNW 13 17 7 9 1016.0 1016.1 0.0
23/09:00am 12.2 10.7 12.0 99 0.1 NNW 11 17 6 9 1016.4 1016.5 5.6
23/08:30am 11.8 9.5 11.6 99 0.1 NNW 15 20 8 11 1016.2 1016.3 5.6
23/08:00am 10.5 8.9 10.3 99 0.1 N 9 13 5 7 1015.7 1015.7 5.6
23/07:30am 10.5 9.3 10.3 99 0.1 N 7 11 4 6 1015.7 1015.7 5.6
23/07:00am 11.2 9.4 11.0 99 0.1 N 11 15 6 8 1015.4 1015.4 5.6
23/06:30am 11.2 9.4 11.0 99 0.1 NNW 11 15 6 8 1015.2 1015.2 5.6
23/06:00am 11.9 9.9 11.4 97 0.3 NNW 13 17 7 9 1015.1 1015.1 5.6
23/05:30am 12.4 10.1 11.8 96 0.3 NNW 15 20 8 11 1014.8 1014.8 5.6
23/05:00am 12.4 10.5 11.9 97 0.3 NNW 13 19 7 10 1014.8 1014.8 5.6
23/04:30am 12.1 9.7 11.3 95 0.4 N 15 20 8 11 1014.6 1014.6 5.6
23/04:00am 12.3 9.5 11.4 94 0.5 N 17 22 9 12 1014.6 1014.6 5.6
23/03:30am 12.7 9.6 11.6 93 0.6 NNW 19 22 10 12 1014.8 1014.8 5.6
23/03:00am 12.8 10.8 11.5 92 0.7 NNW 13 20 7 11 1014.7 1014.7 5.6
23/02:30am 13.0 10.3 11.7 92 0.7 N 17 26 9 14 1014.7 1014.7 5.6
23/02:00am 13.4 10.2 11.8 90 0.9 N 20 33 11 18 1014.8 1014.8 5.6
23/01:30am 13.5 10.8 11.7 89 1.0 N 17 26 9 14 1014.7 1014.7 5.6
23/01:00am 13.4 11.2 12.1 92 0.7 N 15 22 8 12 1014.8 1014.8 5.6
23/12:30am 13.5 10.6 12.2 92 0.7 N 19 30 10 16 1014.4 1014.4 5.4
23/12:00am 13.3 11.0 13.0 98 0.2 N 17 24 9 13 1015.0 1015.0 5.0
 
Date/Time
EST
Temp
°C
App
Temp
°C
Dew
Point
°C
Rel
Hum
%
Delta-T
°C
Wind Press
QNH
hPa
Press
MSL
hPa
Rain since
9am
mm
Dir  Spd
km/h
Gust
km/h
Spd
kts
Gust
kts
22/11:30pm 13.2 10.8 12.7 97 0.3 NNE 17 26 9 14 1014.8 1014.8 4.8
22/11:00pm 13.5 10.2 12.9 96 0.3 NNW 22 33 12 18 1016.1 1016.2 4.4
22/10:30pm 14.2 10.8 12.4 89 1.0 NW 22 33 12 18 1016.3 1016.4 2.4
22/10:00pm 13.5 12.6 12.6 94 0.5 NNW 9 13 5 7 1015.6 1015.6 2.0
22/09:30pm 13.5 12.6 12.6 94 0.5 N 9 13 5 7 1015.5 1015.5 1.8
22/09:00pm 14.4 11.9 12.3 87 1.1 WNW 17 26 9 14 1015.3 1015.3 1.4
22/08:30pm 16.3 13.0 11.0 71 2.9 N 19 28 10 15 1015.1 1015.1 0.2
22/08:00pm 17.0 13.1 10.8 67 3.3 N 22 30 12 16 1014.8 1014.8 0.0
22/07:30pm 17.5 13.9 10.4 63 3.8 N 20 28 11 15 1014.3 1014.3 0.0
22/07:00pm 17.5 14.1 10.4 63 3.8 NNE 19 28 10 15 1013.8 1013.8 0.0
22/06:30pm 17.5 14.5 10.6 64 3.7 NNE 17 26 9 14 1013.6 1013.6 0.0
22/06:00pm 17.5 14.5 10.6 64 3.7 NNE 17 26 9 14 1013.3 1013.3 0.0
22/05:30pm 18.2 15.1 10.3 60 4.2 NNE 17 28 9 15 1013.3 1013.3 0.0
22/05:00pm 18.5 15.4 10.3 59 4.4 N 17 26 9 14 1013.7 1013.7 0.0
22/04:30pm 18.7 15.4 10.8 60 4.3 NNE 19 30 10 16 1013.5 1013.5 0.0
22/04:00pm 19.0 15.5 10.8 59 4.5 N 20 32 11 17 1013.5 1013.5 0.0
22/03:30pm 19.6 15.6 10.6 56 4.9 N 22 32 12 17 1013.4 1013.4 0.0
22/03:07pm 19.7 14.6 10.7 56 4.9 N 28 46 15 25 1013.5 1013.5 0.0
22/03:00pm 19.8 15.1 10.5 55 5.1 N 26 41 14 22 1013.5 1013.5 0.0
22/02:30pm 19.2 13.6 10.2 56 4.9 N 30 50 16 27 1013.8 1013.8 0.0
22/02:00pm 19.7 14.3 10.9 57 4.8 N 30 48 16 26 1013.8 1013.8 0.0
22/01:37pm 19.7 13.8 10.4 55 5.0 N 32 52 17 28 1014.2 1014.2 0.0
22/01:30pm 19.9 14.1 11.4 58 4.7 N 33 44 18 24 1014.5 1014.5 0.0
22/01:07pm 19.4 14.4 10.9 58 4.7 N 28 46 15 25 1014.5 1014.5 0.0
22/01:00pm 19.2 15.0 11.0 59 4.5 N 24 43 13 23 1014.6 1014.6 0.0
22/12:30pm 18.4 13.4 10.8 61 4.1 N 28 41 15 22 1015.2 1015.2 0.0
22/12:18pm 18.5 12.6 10.6 60 4.3 N 32 48 17 26 1015.4 1015.4 0.0
22/12:00pm 18.0 14.6 11.1 64 3.8 N 20 32 11 17 1016.0 1016.1 0.0
22/11:30am 17.5 13.7 11.1 66 3.5 N 22 37 12 20 1016.1 1016.2 0.0
22/11:00am 16.3 11.8 9.9 66 3.4 N 24 41 13 22 1016.3 1016.4 0.0
22/10:30am 15.8 11.6 9.7 67 3.2 NNE 22 39 12 21 1016.4 1016.5 0.0
22/10:00am 15.2 11.6 9.8 70 2.8 NNE 19 28 10 15 1016.9 1017.0 0.0
22/09:30am 14.3 10.3 8.9 70 2.8 N 20 33 11 18 1017.3 1017.4 0.0
22/09:00am 13.6 10.5 8.9 73 2.4 NNE 15 20 8 11 1017.5 1017.6 0.0
22/08:30am 12.7 9.5 8.4 75 2.1 NNE 15 19 8 10 1017.4 1017.5 0.0
22/08:00am 12.0 9.5 8.1 77 1.9 N 11 17 6 9 1017.3 1017.4 0.0
22/07:30am 11.9 8.6 8.0 77 1.9 NNE 15 22 8 12 1017.2 1017.3 0.0
22/07:00am 11.8 8.9 8.1 78 1.8 NNE 13 24 7 13 1017.2 1017.3 0.0
22/06:30am 11.8 9.3 8.1 78 1.8 NNE 11 15 6 8 1017.3 1017.4 0.0
22/06:00am 12.2 9.3 8.3 77 1.9 NNE 13 19 7 10 1017.2 1017.3 0.0
22/05:30am 13.0 9.5 8.7 75 2.2 NNE 17 26 9 14 1017.1 1017.2 0.0
22/05:00am 12.6 9.8 8.5 76 2.0 N 13 17 7 9 1017.2 1017.3 0.0
22/04:30am 12.2 10.2 8.5 78 1.8 N 9 17 5 9 1017.3 1017.4 0.0
22/04:00am 10.4 8.9 8.3 87 1.0 NNE 6 9 3 5 1017.4 1017.5 0.0
22/03:30am 10.5 8.4 8.4 87 1.0 NNE 9 13 5 7 1017.5 1017.6 0.0
22/03:00am 11.2 9.2 8.6 84 1.3 NNE 9 11 5 6 1017.6 1017.7 0.0
22/02:30am 11.0 9.0 8.6 85 1.2 NNE 9 13 5 7 1017.8 1017.9 0.0
22/02:00am 10.9 9.4 9.3 90 0.8 NNE 7 11 4 6 1017.9 1018.0 0.0
22/01:30am 9.4 7.7 8.3 93 0.5 NE 7 9 4 5 1018.1 1018.2 0.0
22/01:00am 9.4 9.1 8.5 94 0.4 CALM 0 6 0 3 1018.1 1018.2 0.0
22/12:30am 9.9 8.5 8.8 93 0.5 ENE 6 7 3 4 1018.4 1018.5 0.0
22/12:00am 10.4 9.0 9.5 94 0.5 NE 7 9 4 5 1018.5 1018.6 0.0
 
Date/Time
EST
Temp
°C
App
Temp
°C
Dew
Point
°C
Rel
Hum
%
Delta-T
°C
Wind Press
QNH
hPa
Press
MSL
hPa
Rain since
9am
mm
Dir  Spd
km/h
Gust
km/h
Spd
kts
Gust
kts
21/11:30pm 10.2 8.8 9.4 95 0.4 NE 7 9 4 5 1018.6 1018.7 0.0
21/11:00pm 10.6 9.2 9.7 94 0.5 NE 7 9 4 5 1018.6 1018.7 0.0
21/10:30pm 10.6 9.2 9.7 94 0.5 NE 7 9 4 5 1018.6 1018.7 0.0
21/10:00pm 11.0 9.7 10.1 94 0.5 NE 7 9 4 5 1018.8 1018.9 0.0
21/09:30pm 11.1 9.8 10.0 93 0.6 NE 7 9 4 5 1018.8 1018.9 0.0
21/09:00pm 11.4 10.3 10.5 94 0.5 ENE 7 9 4 5 1018.7 1018.8 0.0
21/08:30pm 11.5 10.3 10.2 92 0.7 NE 7 9 4 5 1018.6 1018.7 0.0
21/08:00pm 11.8 10.9 10.5 92 0.7 ENE 6 7 3 4 1018.4 1018.5 0.0
21/07:30pm 12.0 11.4 10.4 90 0.8 ENE 4 7 2 4 1018.2 1018.3 0.0
21/07:00pm 12.9 13.1 10.6 86 1.2 CALM 0 0 0 0 1018.0 1018.1 0.0
21/06:30pm 14.2 13.7 10.8 80 1.8 N 4 6 2 3 1017.7 1017.8 0.0
21/06:00pm 14.7 13.9 11.1 79 1.9 N 6 9 3 5 1017.5 1017.6 0.0
21/05:30pm 16.2 15.3 11.4 73 2.6 N 7 11 4 6 1017.4 1017.5 0.0
21/05:00pm 17.8 16.2 11.4 66 3.5 NNW 11 15 6 8 1017.3 1017.4 0.0
21/04:30pm 18.9 16.8 11.2 61 4.2 NNW 13 19 7 10 1017.1 1017.2 0.0
21/04:00pm 19.4 17.2 12.2 63 4.0 N 15 22 8 12 1016.9 1017.0 0.0
21/03:30pm 19.6 17.0 12.1 62 4.2 N 17 20 9 11 1016.7 1016.8 0.0
21/03:00pm 20.2 17.7 12.2 60 4.5 NNW 17 24 9 13 1016.7 1016.8 0.0
21/02:30pm 20.0 16.3 11.5 58 4.7 NNW 22 35 12 19 1016.6 1016.7 0.0
21/02:00pm 19.9 16.9 12.7 63 4.1 NNW 20 32 11 17 1016.6 1016.7 0.0
21/01:30pm 19.6 16.2 12.6 64 4.0 NNW 22 30 12 16 1016.6 1016.7 0.0
21/01:00pm 19.6 17.4 13.3 67 3.6 N 17 28 9 15 1016.9 1017.0 0.0
21/12:30pm 19.4 15.7 12.7 65 3.8 NNW 24 35 13 19 1017.2 1017.3 0.0
21/12:00pm 18.0 16.4 12.7 71 3.0 N 13 17 7 9 1017.7 1017.8 0.0
21/11:30am 17.7 15.3 12.6 72 2.9 N 17 22 9 12 1018.0 1018.1 0.0
21/11:00am 16.6 14.9 12.6 77 2.2 N 13 24 7 13 1018.1 1018.2 0.0
21/10:30am 15.0 13.6 12.1 83 1.6 NNE 11 19 6 10 1018.2 1018.3 0.0
21/10:00am 14.4 12.1 11.9 85 1.4 NNE 15 20 8 11 1018.3 1018.4 0.0
21/09:30am 13.9 11.6 11.8 87 1.1 NNE 15 20 8 11 1018.3 1018.4 0.0
21/09:00am 12.6 10.5 11.3 92 0.7 NNE 13 19 7 10 1018.1 1018.2 1.2
21/08:30am 12.4 10.3 11.1 92 0.7 NNE 13 19 7 10 1017.9 1018.0 1.2
21/08:00am 12.2 10.0 10.9 92 0.7 NNE 13 19 7 10 1017.7 1017.8 1.2
21/07:30am 12.3 10.6 11.2 93 0.6 NNE 11 17 6 9 1017.2 1017.3 1.2
21/07:00am 12.3 10.6 11.2 93 0.6 NNE 11 15 6 8 1016.9 1017.0 1.2
21/06:30am 12.3 11.1 11.5 95 0.4 NNE 9 13 5 7 1016.7 1016.8 1.2
21/06:00am 12.4 10.4 11.6 95 0.4 NNE 13 19 7 10 1016.5 1016.6 1.2
21/05:30am 12.4 10.5 11.8 96 0.3 NNE 13 17 7 9 1016.4 1016.5 1.2
21/05:00am 12.4 10.4 11.6 95 0.4 NNE 13 19 7 10 1016.4 1016.5 1.2
21/04:30am 12.6 11.1 11.8 95 0.4 N 11 15 6 8 1016.4 1016.5 0.8
21/04:00am 13.4 11.4 11.6 89 1.0 N 13 19 7 10 1016.2 1016.3 0.2
21/03:30am 13.3 10.9 11.5 89 1.0 N 15 20 8 11 1016.1 1016.2 0.2
21/03:00am 13.5 11.6 11.7 89 1.0 N 13 20 7 11 1016.1 1016.2 0.2
21/02:30am 13.6 10.9 11.7 88 1.0 N 17 22 9 12 1016.0 1016.1 0.2
21/02:00am 13.6 11.7 11.8 89 1.0 N 13 20 7 11 1016.0 1016.1 0.2
21/01:30am 13.5 11.6 11.9 90 0.9 N 13 20 7 11 1016.0 1016.1 0.2
21/01:00am 13.3 11.9 12.2 93 0.6 NNE 11 15 6 8 1016.2 1016.3 0.2
21/12:30am 13.0 11.9 12.1 94 0.5 NNE 9 15 5 8 1016.3 1016.4 0.2
21/12:00am 12.9 11.4 12.0 94 0.5 N 11 17 6 9 1016.3 1016.4 0.2
 
Date/Time
EST
Temp
°C
App
Temp
°C
Dew
Point
°C
Rel
Hum
%
Delta-T
°C
Wind Press
QNH
hPa
Press
MSL
hPa
Rain since
9am
mm
Dir  Spd
km/h
Gust
km/h
Spd
kts
Gust
kts
20/11:30pm 12.9 11.8 12.1 95 0.4 N 9 15 5 8 1016.3 1016.4 0.2
20/11:00pm 13.1 11.7 12.3 95 0.4 N 11 17 6 9 1016.4 1016.5 0.2
20/10:30pm 13.2 11.2 12.6 96 0.3 NNE 15 20 8 11 1016.4 1016.5 0.2
20/10:00pm 12.9 11.2 12.6 98 0.2 NNE 13 17 7 9 1016.4 1016.5 0.2
20/09:30pm 12.7 11.0 12.4 98 0.2 NNE 13 19 7 10 1016.3 1016.4 0.2
20/09:00pm 13.0 10.9 12.5 97 0.3 NNE 15 24 8 13 1016.2 1016.3 0.2
20/08:30pm 12.4 11.3 11.8 96 0.3 NNE 9 13 5 7 1016.1 1016.2 0.2
20/08:00pm 13.2 11.8 12.3 94 0.5 NNE 11 15 6 8 1015.8 1015.9 0.2
20/07:30pm 13.3 12.3 12.2 93 0.6 NNE 9 15 5 8 1015.7 1015.7 0.2
20/07:00pm 14.1 13.2 12.7 91 0.8 N 9 15 5 8 1015.5 1015.5 0.2
20/06:30pm 14.2 13.0 12.8 91 0.8 N 11 15 6 8 1015.3 1015.3 0.0
20/06:00pm 13.6 13.1 12.5 93 0.6 NNE 7 11 4 6 1014.9 1014.9 0.0
20/05:30pm 14.4 13.9 12.6 89 1.0 N 7 9 4 5 1014.8 1014.8 0.0
20/05:00pm 14.5 13.9 12.4 87 1.1 N 7 9 4 5 1014.6 1014.6 0.0
20/04:30pm 15.1 13.8 12.4 84 1.5 N 11 17 6 9 1014.4 1014.4 0.0
20/04:00pm 15.2 13.5 12.3 83 1.6 N 13 24 7 13 1014.3 1014.3 0.0
20/03:30pm 15.2 13.0 12.0 81 1.7 N 15 20 8 11 1014.1 1014.1 0.0
20/03:00pm 15.7 12.6 12.1 79 2.0 N 20 30 11 16 1014.1 1014.1 0.0
20/02:30pm 15.2 12.7 12.2 82 1.6 N 17 28 9 15 1014.1 1014.1 0.0
20/02:00pm 15.9 13.5 12.6 81 1.8 NNW 17 22 9 12 1014.0 1014.0 0.0
20/01:30pm 15.3 12.9 12.6 84 1.5 N 17 24 9 13 1014.2 1014.2 0.0
20/01:00pm 14.7 11.9 12.7 88 1.1 NNW 19 26 10 14 1014.4 1014.4 0.0
20/12:30pm 15.1 11.8 12.8 86 1.3 N 22 30 12 16 1014.5 1014.5 0.0
20/12:00pm 13.9 10.8 12.3 90 0.9 N 20 32 11 17 1014.9 1014.9 0.0
20/11:30am 13.7 10.6 12.3 91 0.8 N 20 30 11 16 1015.1 1015.1 0.0
20/11:00am 13.4 11.0 12.5 94 0.5 N 17 22 9 12 1015.1 1015.1 0.0

Other Formats:

Comma delimited format used in spreadsheet applications
http://www.bom.gov.au/fwo/IDV60801/IDV60801.95825.axf

JavaScript Object Notation format (JSON) in row-major order
http://www.bom.gov.au/fwo/IDV60801/IDV60801.95825.json